BNS weather

Barinas Airport
Barinas, Barinas, Venezuela

Public forecast

Using degrees Celsius for public forecast. Weather courtesy of forecast.io.

METAR (pilot weather report)

Report is more than 6 hours old.

Retrieved 2018/11/27 21:00 UTC (10 months ago):

SVBI 272100Z /////KT 9999 SCT017 SCT070 29/21 Q1009

TAF (pilot weather forecast)

Closest forecast is Barquisimeto International Airport, 99.6 nm (184.4 km) NNE. Retrieved 2019/09/22 18:03 UTC (2 hours ago):

TAF TAF SVBM 221548Z 2218/2318 10010KT 9999 FEW013 BKN070 TX33/2218Z TN22/2308Z BECMG 2220/2300 11008KT 7000 RA SCT013CB BKN060